sensor_id;sensor_type;location;lat;lon;timestamp;pressure;altitude;pressure_sealevel;temperature;humidity
20620;BME280;10469;42.720;23.252;2023-02-28T00:00:16;95370.75;;;6.49;100.00
20620;BME280;10469;42.720;23.252;2023-02-28T00:02:43;95377.34;;;6.53;100.00
20620;BME280;10469;42.720;23.252;2023-02-28T00:05:10;95361.69;;;6.37;100.00
20620;BME280;10469;42.720;23.252;2023-02-28T00:07:35;95362.88;;;6.28;100.00
20620;BME280;10469;42.720;23.252;2023-02-28T00:10:01;95376.53;;;6.12;100.00
20620;BME280;10469;42.720;23.252;2023-02-28T00:12:27;95390.28;;;6.15;100.00
20620;BME280;10469;42.720;23.252;2023-02-28T00:14:52;95386.56;;;6.16;100.00
20620;BME280;10469;42.720;23.252;2023-02-28T00:17:18;95397.88;;;6.25;100.00
20620;BME280;10469;42.720;23.252;2023-02-28T00:19:47;95389.25;;;6.16;100.00
20620;BME280;10469;42.720;23.252;2023-02-28T00:22:14;95389.00;;;6.11;100.00
20620;BME280;10469;42.720;23.252;2023-02-28T00:24:39;95369.91;;;6.01;100.00
20620;BME280;10469;42.720;23.252;2023-02-28T00:27:04;95396.06;;;6.25;100.00
20620;BME280;10469;42.720;23.252;2023-02-28T00:29:30;95397.44;;;6.15;100.00
20620;BME280;10469;42.720;23.252;2023-02-28T00:31:55;95396.78;;;6.13;100.00
20620;BME280;10469;42.720;23.252;2023-02-28T00:34:21;95406.25;;;6.15;100.00
20620;BME280;10469;42.720;23.252;2023-02-28T00:36:46;95409.13;;;6.20;100.00
20620;BME280;10469;42.720;23.252;2023-02-28T00:39:14;95414.22;;;6.15;100.00
20620;BME280;10469;42.720;23.252;2023-02-28T00:41:40;95415.63;;;6.05;100.00
20620;BME280;10469;42.720;23.252;2023-02-28T00:44:05;95400.66;;;5.82;100.00
20620;BME280;10469;42.720;23.252;2023-02-28T00:46:31;95389.56;;;5.72;100.00
20620;BME280;10469;42.720;23.252;2023-02-28T00:48:56;95392.13;;;5.59;100.00
20620;BME280;10469;42.720;23.252;2023-02-28T00:51:21;95394.47;;;5.47;100.00
20620;BME280;10469;42.720;23.252;2023-02-28T00:53:47;95391.06;;;5.53;100.00
20620;BME280;10469;42.720;23.252;2023-02-28T00:56:12;95372.94;;;5.42;100.00
20620;BME280;10469;42.720;23.252;2023-02-28T00:58:38;95388.84;;;5.35;100.00
20620;BME280;10469;42.720;23.252;2023-02-28T01:01:04;95399.75;;;5.40;100.00
20620;BME280;10469;42.720;23.252;2023-02-28T01:03:29;95390.09;;;5.39;100.00
20620;BME280;10469;42.720;23.252;2023-02-28T01:05:55;95394.44;;;5.40;100.00
20620;BME280;10469;42.720;23.252;2023-02-28T01:08:21;95393.34;;;5.13;100.00
20620;BME280;10469;42.720;23.252;2023-02-28T01:10:47;95391.25;;;4.87;100.00
20620;BME280;10469;42.720;23.252;2023-02-28T01:13:13;95382.19;;;4.82;100.00
20620;BME280;10469;42.720;23.252;2023-02-28T01:15:42;95390.06;;;4.90;100.00
20620;BME280;10469;42.720;23.252;2023-02-28T01:18:08;95379.66;;;4.73;100.00
20620;BME280;10469;42.720;23.252;2023-02-28T01:20:38;95395.34;;;4.68;100.00
20620;BME280;10469;42.720;23.252;2023-02-28T01:23:04;95397.88;;;4.76;100.00
20620;BME280;10469;42.720;23.252;2023-02-28T01:25:29;95382.81;;;4.62;100.00
20620;BME280;10469;42.720;23.252;2023-02-28T01:27:55;95367.91;;;4.83;100.00
20620;BME280;10469;42.720;23.252;2023-02-28T01:30:20;95379.31;;;4.98;100.00
20620;BME280;10469;42.720;23.252;2023-02-28T01:32:46;95392.06;;;5.09;100.00
20620;BME280;10469;42.720;23.252;2023-02-28T01:35:11;95388.91;;;4.99;100.00
20620;BME280;10469;42.720;23.252;2023-02-28T01:37:37;95377.44;;;4.77;100.00
20620;BME280;10469;42.720;23.252;2023-02-28T01:40:03;95386.69;;;4.81;100.00
20620;BME280;10469;42.720;23.252;2023-02-28T01:42:28;95377.25;;;4.78;100.00
20620;BME280;10469;42.720;23.252;2023-02-28T01:47:44;95388.56;;;4.66;100.00
20620;BME280;10469;42.720;23.252;2023-02-28T01:50:16;95390.84;;;4.69;100.00
20620;BME280;10469;42.720;23.252;2023-02-28T01:52:43;95392.00;;;4.81;100.00
20620;BME280;10469;42.720;23.252;2023-02-28T01:55:10;95379.50;;;4.75;100.00
20620;BME280;10469;42.720;23.252;2023-02-28T01:57:41;95390.16;;;4.82;100.00
20620;BME280;10469;42.720;23.252;2023-02-28T02:00:09;95383.59;;;4.77;100.00
20620;BME280;10469;42.720;23.252;2023-02-28T02:02:36;95384.78;;;4.96;100.00
20620;BME280;10469;42.720;23.252;2023-02-28T02:05:07;95398.97;;;5.25;100.00
20620;BME280;10469;42.720;23.252;2023-02-28T02:07:36;95392.50;;;5.34;100.00
20620;BME280;10469;42.720;23.252;2023-02-28T02:34:48;95383.31;;;5.58;100.00
20620;BME280;10469;42.720;23.252;2023-02-28T02:37:31;95386.81;;;5.65;100.00
20620;BME280;10469;42.720;23.252;2023-02-28T02:40:19;95381.84;;;5.56;100.00
20620;BME280;10469;42.720;23.252;2023-02-28T02:42:55;95389.91;;;5.62;100.00
20620;BME280;10469;42.720;23.252;2023-02-28T02:45:48;95399.03;;;5.53;100.00
20620;BME280;10469;42.720;23.252;2023-02-28T02:48:19;95393.88;;;5.51;100.00
20620;BME280;10469;42.720;23.252;2023-02-28T02:50:52;95391.56;;;5.42;100.00
20620;BME280;10469;42.720;23.252;2023-02-28T02:53:23;95402.19;;;5.42;100.00
20620;BME280;10469;42.720;23.252;2023-02-28T02:55:51;95389.28;;;5.39;100.00
20620;BME280;10469;42.720;23.252;2023-02-28T02:58:23;95383.47;;;5.07;100.00
20620;BME280;10469;42.720;23.252;2023-02-28T03:00:53;95388.91;;;5.20;100.00
20620;BME280;10469;42.720;23.252;2023-02-28T03:03:21;95387.59;;;5.31;100.00
20620;BME280;10469;42.720;23.252;2023-02-28T03:05:56;95383.50;;;5.35;100.00
20620;BME280;10469;42.720;23.252;2023-02-28T03:08:21;95399.22;;;5.51;100.00
20620;BME280;10469;42.720;23.252;2023-02-28T03:10:52;95416.50;;;5.62;100.00
20620;BME280;10469;42.720;23.252;2023-02-28T03:26:46;95430.63;;;5.41;100.00
20620;BME280;10469;42.720;23.252;2023-02-28T03:29:28;95427.97;;;5.63;100.00
20620;BME280;10469;42.720;23.252;2023-02-28T03:32:10;95423.47;;;5.63;100.00
20620;BME280;10469;42.720;23.252;2023-02-28T03:34:53;95438.75;;;5.83;100.00
20620;BME280;10469;42.720;23.252;2023-02-28T03:37:22;95434.81;;;5.78;100.00
20620;BME280;10469;42.720;23.252;2023-02-28T03:39:58;95437.44;;;5.72;100.00
20620;BME280;10469;42.720;23.252;2023-02-28T03:42:28;95449.34;;;5.76;100.00
20620;BME280;10469;42.720;23.252;2023-02-28T03:44:57;95451.47;;;5.59;100.00
20620;BME280;10469;42.720;23.252;2023-02-28T03:47:28;95453.03;;;5.75;100.00
20620;BME280;10469;42.720;23.252;2023-02-28T03:50:10;95443.47;;;5.59;100.00
20620;BME280;10469;42.720;23.252;2023-02-28T03:52:46;95453.75;;;5.62;100.00
20620;BME280;10469;42.720;23.252;2023-02-28T03:55:14;95451.56;;;5.72;100.00
20620;BME280;10469;42.720;23.252;2023-02-28T04:00:32;95454.22;;;5.94;100.00
20620;BME280;10469;42.720;23.252;2023-02-28T04:02:59;95460.47;;;5.86;100.00
20620;BME280;10469;42.720;23.252;2023-02-28T04:05:25;95462.00;;;5.74;100.00
20620;BME280;10469;42.720;23.252;2023-02-28T04:07:52;95454.03;;;5.95;100.00
20620;BME280;10469;42.720;23.252;2023-02-28T04:10:18;95447.50;;;5.98;100.00
20620;BME280;10469;42.720;23.252;2023-02-28T04:12:43;95447.72;;;5.96;100.00
20620;BME280;10469;42.720;23.252;2023-02-28T04:15:09;95451.03;;;6.05;100.00
20620;BME280;10469;42.720;23.252;2023-02-28T04:17:36;95458.00;;;6.06;100.00
20620;BME280;10469;42.720;23.252;2023-02-28T04:20:03;95440.13;;;6.00;100.00
20620;BME280;10469;42.720;23.252;2023-02-28T04:22:29;95439.38;;;6.06;100.00
20620;BME280;10469;42.720;23.252;2023-02-28T04:24:54;95455.13;;;6.01;100.00
20620;BME280;10469;42.720;23.252;2023-02-28T04:27:21;95441.13;;;5.92;100.00
20620;BME280;10469;42.720;23.252;2023-02-28T04:29:46;95447.88;;;5.95;100.00
20620;BME280;10469;42.720;23.252;2023-02-28T04:32:12;95433.03;;;5.86;100.00
20620;BME280;10469;42.720;23.252;2023-02-28T04:34:37;95450.16;;;5.98;100.00
20620;BME280;10469;42.720;23.252;2023-02-28T04:37:03;95459.41;;;5.81;100.00
20620;BME280;10469;42.720;23.252;2023-02-28T04:39:29;95445.09;;;5.82;100.00
20620;BME280;10469;42.720;23.252;2023-02-28T04:41:55;95460.72;;;5.91;100.00
20620;BME280;10469;42.720;23.252;2023-02-28T04:44:22;95452.94;;;5.90;100.00
20620;BME280;10469;42.720;23.252;2023-02-28T04:46:48;95459.28;;;5.89;100.00
20620;BME280;10469;42.720;23.252;2023-02-28T04:49:14;95466.72;;;5.93;100.00
20620;BME280;10469;42.720;23.252;2023-02-28T04:51:41;95470.19;;;5.94;100.00
20620;BME280;10469;42.720;23.252;2023-02-28T04:54:07;95476.56;;;5.93;100.00
20620;BME280;10469;42.720;23.252;2023-02-28T04:56:32;95472.63;;;5.67;100.00
20620;BME280;10469;42.720;23.252;2023-02-28T04:58:58;95474.00;;;5.85;100.00
20620;BME280;10469;42.720;23.252;2023-02-28T05:01:32;95477.41;;;5.78;100.00
20620;BME280;10469;42.720;23.252;2023-02-28T05:03:59;95466.50;;;5.73;100.00
20620;BME280;10469;42.720;23.252;2023-02-28T05:06:28;95475.19;;;5.82;100.00
20620;BME280;10469;42.720;23.252;2023-02-28T05:08:54;95477.69;;;5.62;100.00
20620;BME280;10469;42.720;23.252;2023-02-28T05:11:25;95482.03;;;5.70;100.00
20620;BME280;10469;42.720;23.252;2023-02-28T05:13:52;95480.47;;;5.75;100.00
20620;BME280;10469;42.720;23.252;2023-02-28T05:16:18;95479.31;;;5.85;100.00
20620;BME280;10469;42.720;23.252;2023-02-28T05:18:44;95487.50;;;5.83;100.00
20620;BME280;10469;42.720;23.252;2023-02-28T05:21:28;95476.31;;;5.66;100.00
20620;BME280;10469;42.720;23.252;2023-02-28T05:23:55;95489.16;;;5.63;100.00
20620;BME280;10469;42.720;23.252;2023-02-28T05:26:21;95492.38;;;5.58;100.00
20620;BME280;10469;42.720;23.252;2023-02-28T05:28:47;95487.56;;;5.68;100.00
20620;BME280;10469;42.720;23.252;2023-02-28T05:31:13;95501.69;;;5.69;100.00
20620;BME280;10469;42.720;23.252;2023-02-28T05:33:38;95483.06;;;5.47;100.00
20620;BME280;10469;42.720;23.252;2023-02-28T05:36:05;95495.84;;;5.80;100.00
20620;BME280;10469;42.720;23.252;2023-02-28T05:38:31;95504.78;;;5.72;100.00
20620;BME280;10469;42.720;23.252;2023-02-28T05:40:56;95507.69;;;5.56;100.00
20620;BME280;10469;42.720;23.252;2023-02-28T05:43:22;95513.25;;;5.83;100.00
20620;BME280;10469;42.720;23.252;2023-02-28T05:45:47;95511.16;;;5.93;100.00
20620;BME280;10469;42.720;23.252;2023-02-28T05:48:13;95511.13;;;5.71;100.00
20620;BME280;10469;42.720;23.252;2023-02-28T05:50:38;95509.63;;;5.84;100.00
20620;BME280;10469;42.720;23.252;2023-02-28T05:53:04;95508.38;;;5.86;100.00
20620;BME280;10469;42.720;23.252;2023-02-28T05:55:29;95510.13;;;5.94;100.00
20620;BME280;10469;42.720;23.252;2023-02-28T05:57:55;95512.47;;;6.32;100.00
20620;BME280;10469;42.720;23.252;2023-02-28T06:00:21;95499.97;;;6.32;100.00
20620;BME280;10469;42.720;23.252;2023-02-28T06:02:47;95521.06;;;6.62;100.00
20620;BME280;10469;42.720;23.252;2023-02-28T06:05:15;95527.19;;;6.97;100.00
20620;BME280;10469;42.720;23.252;2023-02-28T06:07:41;95522.25;;;6.94;100.00
20620;BME280;10469;42.720;23.252;2023-02-28T06:10:07;95509.09;;;6.86;100.00
20620;BME280;10469;42.720;23.252;2023-02-28T06:12:32;95506.72;;;7.04;100.00
20620;BME280;10469;42.720;23.252;2023-02-28T06:14:58;95516.53;;;7.03;100.00
20620;BME280;10469;42.720;23.252;2023-02-28T06:17:23;95513.66;;;6.92;100.00
20620;BME280;10469;42.720;23.252;2023-02-28T06:19:48;95519.50;;;6.74;100.00
20620;BME280;10469;42.720;23.252;2023-02-28T06:22:14;95518.63;;;6.67;100.00
20620;BME280;10469;42.720;23.252;2023-02-28T06:24:39;95501.19;;;6.64;100.00
20620;BME280;10469;42.720;23.252;2023-02-28T06:27:05;95520.78;;;6.85;100.00
20620;BME280;10469;42.720;23.252;2023-02-28T06:29:32;95522.13;;;6.67;100.00
20620;BME280;10469;42.720;23.252;2023-02-28T06:31:57;95520.31;;;6.74;100.00
20620;BME280;10469;42.720;23.252;2023-02-28T06:34:23;95513.31;;;6.73;100.00
20620;BME280;10469;42.720;23.252;2023-02-28T06:36:50;95534.56;;;6.95;100.00
20620;BME280;10469;42.720;23.252;2023-02-28T06:39:15;95539.81;;;6.82;100.00
20620;BME280;10469;42.720;23.252;2023-02-28T06:41:41;95535.19;;;6.97;100.00
20620;BME280;10469;42.720;23.252;2023-02-28T06:44:12;95530.47;;;6.99;100.00
20620;BME280;10469;42.720;23.252;2023-02-28T06:46:40;95524.75;;;6.95;100.00
20620;BME280;10469;42.720;23.252;2023-02-28T06:49:06;95536.44;;;7.01;100.00
20620;BME280;10469;42.720;23.252;2023-02-28T06:51:34;95528.81;;;6.91;100.00
20620;BME280;10469;42.720;23.252;2023-02-28T06:53:59;95506.25;;;6.94;100.00
20620;BME280;10469;42.720;23.252;2023-02-28T06:56:25;95534.66;;;7.08;100.00
20620;BME280;10469;42.720;23.252;2023-02-28T06:58:50;95524.81;;;7.15;100.00
20620;BME280;10469;42.720;23.252;2023-02-28T07:01:18;95535.41;;;7.02;100.00
20620;BME280;10469;42.720;23.252;2023-02-28T07:03:44;95543.22;;;7.03;100.00
20620;BME280;10469;42.720;23.252;2023-02-28T07:06:09;95520.91;;;7.11;100.00
20620;BME280;10469;42.720;23.252;2023-02-28T07:08:35;95542.53;;;7.36;100.00
20620;BME280;10469;42.720;23.252;2023-02-28T07:11:02;95528.94;;;7.24;100.00
20620;BME280;10469;42.720;23.252;2023-02-28T07:13:28;95543.69;;;7.20;100.00
20620;BME280;10469;42.720;23.252;2023-02-28T07:16:03;95541.50;;;6.83;100.00
20620;BME280;10469;42.720;23.252;2023-02-28T07:18:29;95547.81;;;6.82;100.00
20620;BME280;10469;42.720;23.252;2023-02-28T07:20:55;95516.72;;;6.54;100.00
20620;BME280;10469;42.720;23.252;2023-02-28T07:23:21;95551.19;;;6.97;100.00
20620;BME280;10469;42.720;23.252;2023-02-28T07:25:47;95545.31;;;7.08;100.00
20620;BME280;10469;42.720;23.252;2023-02-28T07:28:13;95539.56;;;7.11;100.00
20620;BME280;10469;42.720;23.252;2023-02-28T07:30:39;95542.44;;;7.10;100.00
20620;BME280;10469;42.720;23.252;2023-02-28T07:33:05;95544.34;;;6.81;100.00
20620;BME280;10469;42.720;23.252;2023-02-28T07:35:31;95539.75;;;6.68;100.00
20620;BME280;10469;42.720;23.252;2023-02-28T07:37:59;95542.00;;;6.37;100.00
20620;BME280;10469;42.720;23.252;2023-02-28T07:40:25;95545.00;;;6.55;100.00
20620;BME280;10469;42.720;23.252;2023-02-28T07:42:51;95542.16;;;6.57;100.00
20620;BME280;10469;42.720;23.252;2023-02-28T07:45:17;95543.91;;;6.77;100.00
20620;BME280;10469;42.720;23.252;2023-02-28T07:47:43;95547.00;;;6.81;100.00
20620;BME280;10469;42.720;23.252;2023-02-28T07:50:11;95548.31;;;6.57;100.00
20620;BME280;10469;42.720;23.252;2023-02-28T07:52:38;95542.47;;;6.47;100.00
20620;BME280;10469;42.720;23.252;2023-02-28T07:55:05;95529.81;;;6.49;100.00
20620;BME280;10469;42.720;23.252;2023-02-28T07:57:31;95542.53;;;6.53;100.00
20620;BME280;10469;42.720;23.252;2023-02-28T07:59:57;95542.19;;;6.63;100.00
20620;BME280;10469;42.720;23.252;2023-02-28T08:02:22;95538.94;;;6.68;100.00
20620;BME280;10469;42.720;23.252;2023-02-28T08:04:47;95531.59;;;6.76;100.00
20620;BME280;10469;42.720;23.252;2023-02-28T08:07:15;95540.97;;;7.07;100.00
20620;BME280;10469;42.720;23.252;2023-02-28T08:09:41;95535.88;;;7.12;100.00
20620;BME280;10469;42.720;23.252;2023-02-28T08:12:08;95541.97;;;7.54;100.00
20620;BME280;10469;42.720;23.252;2023-02-28T08:14:34;95543.91;;;7.87;100.00
20620;BME280;10469;42.720;23.252;2023-02-28T08:16:59;95547.50;;;7.46;100.00
20620;BME280;10469;42.720;23.252;2023-02-28T08:19:25;95546.53;;;7.60;100.00
20620;BME280;10469;42.720;23.252;2023-02-28T08:21:50;95538.44;;;7.47;100.00
20620;BME280;10469;42.720;23.252;2023-02-28T08:24:16;95554.06;;;7.50;100.00
20620;BME280;10469;42.720;23.252;2023-02-28T08:26:41;95548.53;;;6.97;100.00
20620;BME280;10469;42.720;23.252;2023-02-28T08:29:06;95543.53;;;6.81;100.00
20620;BME280;10469;42.720;23.252;2023-02-28T08:31:32;95557.28;;;6.84;100.00
20620;BME280;10469;42.720;23.252;2023-02-28T08:33:57;95559.81;;;6.99;100.00
20620;BME280;10469;42.720;23.252;2023-02-28T08:36:25;95555.84;;;7.23;100.00
20620;BME280;10469;42.720;23.252;2023-02-28T08:38:51;95557.19;;;7.06;100.00
20620;BME280;10469;42.720;23.252;2023-02-28T08:41:17;95549.50;;;7.31;100.00
20620;BME280;10469;42.720;23.252;2023-02-28T08:43:42;95549.59;;;7.64;100.00
20620;BME280;10469;42.720;23.252;2023-02-28T08:46:11;95550.00;;;7.67;100.00
20620;BME280;10469;42.720;23.252;2023-02-28T08:48:37;95540.97;;;7.68;100.00
20620;BME280;10469;42.720;23.252;2023-02-28T08:51:11;95541.00;;;7.75;100.00
20620;BME280;10469;42.720;23.252;2023-02-28T08:53:38;95547.56;;;7.66;100.00
20620;BME280;10469;42.720;23.252;2023-02-28T08:56:14;95551.84;;;7.53;100.00
20620;BME280;10469;42.720;23.252;2023-02-28T08:58:41;95553.28;;;7.56;100.00
20620;BME280;10469;42.720;23.252;2023-02-28T09:01:18;95553.56;;;7.20;100.00
20620;BME280;10469;42.720;23.252;2023-02-28T09:03:44;95551.38;;;7.37;100.00
20620;BME280;10469;42.720;23.252;2023-02-28T09:06:11;95548.41;;;7.79;100.00
20620;BME280;10469;42.720;23.252;2023-02-28T09:08:39;95548.44;;;7.86;100.00
20620;BME280;10469;42.720;23.252;2023-02-28T09:11:05;95550.88;;;7.94;100.00
20620;BME280;10469;42.720;23.252;2023-02-28T09:13:32;95545.75;;;7.93;100.00
20620;BME280;10469;42.720;23.252;2023-02-28T09:15:59;95556.44;;;8.06;100.00
20620;BME280;10469;42.720;23.252;2023-02-28T09:18:25;95546.41;;;8.08;100.00
20620;BME280;10469;42.720;23.252;2023-02-28T09:20:51;95538.75;;;7.98;100.00
20620;BME280;10469;42.720;23.252;2023-02-28T09:23:17;95534.44;;;7.77;100.00
20620;BME280;10469;42.720;23.252;2023-02-28T09:25:49;95545.13;;;7.84;100.00
20620;BME280;10469;42.720;23.252;2023-02-28T09:28:16;95544.72;;;8.07;100.00
20620;BME280;10469;42.720;23.252;2023-02-28T09:30:44;95544.94;;;7.92;100.00
20620;BME280;10469;42.720;23.252;2023-02-28T09:33:10;95541.63;;;7.84;100.00
20620;BME280;10469;42.720;23.252;2023-02-28T09:35:36;95534.44;;;7.77;100.00
20620;BME280;10469;42.720;23.252;2023-02-28T09:38:03;95535.69;;;8.15;100.00
20620;BME280;10469;42.720;23.252;2023-02-28T09:40:29;95533.88;;;8.22;100.00
20620;BME280;10469;42.720;23.252;2023-02-28T09:42:57;95527.47;;;8.36;100.00
20620;BME280;10469;42.720;23.252;2023-02-28T09:45:30;95524.38;;;8.33;100.00
20620;BME280;10469;42.720;23.252;2023-02-28T09:47:58;95524.19;;;8.54;100.00
20620;BME280;10469;42.720;23.252;2023-02-28T09:50:35;95511.81;;;8.79;100.00
20620;BME280;10469;42.720;23.252;2023-02-28T09:53:13;95509.84;;;9.20;100.00
20620;BME280;10469;42.720;23.252;2023-02-28T09:55:55;95521.16;;;9.22;100.00
20620;BME280;10469;42.720;23.252;2023-02-28T09:58:30;95503.44;;;9.21;100.00
20620;BME280;10469;42.720;23.252;2023-02-28T10:06:52;95505.53;;;9.57;100.00
20620;BME280;10469;42.720;23.252;2023-02-28T10:09:27;95502.56;;;9.72;100.00
20620;BME280;10469;42.720;23.252;2023-02-28T10:12:00;95498.44;;;9.76;100.00
20620;BME280;10469;42.720;23.252;2023-02-28T10:14:29;95496.56;;;10.33;100.00
20620;BME280;10469;42.720;23.252;2023-02-28T10:16:57;95482.94;;;10.78;100.00
20620;BME280;10469;42.720;23.252;2023-02-28T10:25:34;95479.59;;;11.79;100.00
20620;BME280;10469;42.720;23.252;2023-02-28T10:28:10;95454.56;;;12.79;100.00
20620;BME280;10469;42.720;23.252;2023-02-28T10:30:39;95459.34;;;13.01;100.00
20620;BME280;10469;42.720;23.252;2023-02-28T10:33:05;95439.91;;;12.99;100.00
20620;BME280;10469;42.720;23.252;2023-02-28T10:35:31;95450.38;;;13.12;100.00
20620;BME280;10469;42.720;23.252;2023-02-28T10:38:00;95451.66;;;14.07;100.00
20620;BME280;10469;42.720;23.252;2023-02-28T10:40:33;95445.25;;;13.22;100.00
20620;BME280;10469;42.720;23.252;2023-02-28T10:45:36;95415.66;;;12.35;100.00
20620;BME280;10469;42.720;23.252;2023-02-28T10:53:07;95414.91;;;12.75;100.00
20620;BME280;10469;42.720;23.252;2023-02-28T10:55:33;95423.34;;;12.55;100.00
20620;BME280;10469;42.720;23.252;2023-02-28T10:57:59;95404.19;;;13.03;100.00
20620;BME280;10469;42.720;23.252;2023-02-28T11:00:25;95411.41;;;12.74;100.00
20620;BME280;10469;42.720;23.252;2023-02-28T11:02:59;95395.19;;;12.46;100.00
20620;BME280;10469;42.720;23.252;2023-02-28T11:05:26;95404.34;;;12.97;100.00
20620;BME280;10469;42.720;23.252;2023-02-28T11:08:06;95394.34;;;12.34;100.00
20620;BME280;10469;42.720;23.252;2023-02-28T11:10:36;95398.53;;;12.65;100.00
20620;BME280;10469;42.720;23.252;2023-02-28T11:13:02;95380.47;;;12.89;100.00
20620;BME280;10469;42.720;23.252;2023-02-28T11:15:31;95389.91;;;13.03;100.00
20620;BME280;10469;42.720;23.252;2023-02-28T11:18:00;95386.16;;;12.52;100.00
20620;BME280;10469;42.720;23.252;2023-02-28T11:20:29;95375.78;;;12.09;100.00
20620;BME280;10469;42.720;23.252;2023-02-28T11:22:57;95383.72;;;11.92;100.00
20620;BME280;10469;42.720;23.252;2023-02-28T11:25:30;95387.06;;;11.75;100.00
20620;BME280;10469;42.720;23.252;2023-02-28T11:27:59;95392.56;;;11.80;100.00
20620;BME280;10469;42.720;23.252;2023-02-28T11:32:52;95374.56;;;12.63;100.00
20620;BME280;10469;42.720;23.252;2023-02-28T11:35:38;95366.66;;;12.45;100.00
20620;BME280;10469;42.720;23.252;2023-02-28T11:38:09;95376.72;;;12.90;100.00
20620;BME280;10469;42.720;23.252;2023-02-28T11:46:47;95370.47;;;13.41;100.00
20620;BME280;10469;42.720;23.252;2023-02-28T11:52:20;95375.47;;;12.69;100.00
20620;BME280;10469;42.720;23.252;2023-02-28T11:55:00;95368.81;;;12.71;100.00
20620;BME280;10469;42.720;23.252;2023-02-28T12:05:45;95356.97;;;13.24;100.00
20620;BME280;10469;42.720;23.252;2023-02-28T12:08:24;95379.81;;;13.10;100.00
20620;BME280;10469;42.720;23.252;2023-02-28T12:11:03;95366.69;;;13.14;100.00
20620;BME280;10469;42.720;23.252;2023-02-28T12:14:14;95365.19;;;13.06;100.00
20620;BME280;10469;42.720;23.252;2023-02-28T12:19:46;95361.44;;;13.47;100.00
20620;BME280;10469;42.720;23.252;2023-02-28T12:27:23;95357.50;;;12.98;100.00
20620;BME280;10469;42.720;23.252;2023-02-28T12:29:55;95358.84;;;12.32;100.00
20620;BME280;10469;42.720;23.252;2023-02-28T12:32:32;95357.06;;;12.49;100.00
20620;BME280;10469;42.720;23.252;2023-02-28T12:37:37;95354.09;;;12.74;100.00
20620;BME280;10469;42.720;23.252;2023-02-28T12:40:11;95344.34;;;12.73;100.00
20620;BME280;10469;42.720;23.252;2023-02-28T12:42:53;95342.66;;;12.55;100.00
20620;BME280;10469;42.720;23.252;2023-02-28T12:48:04;95350.84;;;11.66;100.00
20620;BME280;10469;42.720;23.252;2023-02-28T12:50:32;95343.94;;;11.82;100.00
20620;BME280;10469;42.720;23.252;2023-02-28T12:53:27;95357.38;;;11.70;100.00
20620;BME280;10469;42.720;23.252;2023-02-28T12:58:39;95345.69;;;12.47;100.00
20620;BME280;10469;42.720;23.252;2023-02-28T13:09:07;95335.53;;;11.67;100.00
20620;BME280;10469;42.720;23.252;2023-02-28T13:11:43;95344.38;;;11.55;100.00
20620;BME280;10469;42.720;23.252;2023-02-28T13:14:22;95323.41;;;11.76;100.00
20620;BME280;10469;42.720;23.252;2023-02-28T13:19:18;95337.81;;;12.05;100.00
20620;BME280;10469;42.720;23.252;2023-02-28T13:21:45;95339.41;;;11.83;100.00
20620;BME280;10469;42.720;23.252;2023-02-28T13:24:11;95332.38;;;11.81;100.00
20620;BME280;10469;42.720;23.252;2023-02-28T13:29:31;95324.66;;;11.73;100.00
20620;BME280;10469;42.720;23.252;2023-02-28T13:37:32;95331.22;;;11.77;100.00
20620;BME280;10469;42.720;23.252;2023-02-28T13:40:14;95327.94;;;11.64;100.00
20620;BME280;10469;42.720;23.252;2023-02-28T13:42:51;95321.34;;;11.36;100.00
20620;BME280;10469;42.720;23.252;2023-02-28T13:45:22;95303.03;;;11.45;100.00
20620;BME280;10469;42.720;23.252;2023-02-28T13:50:29;95318.34;;;11.44;100.00
20620;BME280;10469;42.720;23.252;2023-02-28T13:55:53;95312.50;;;11.59;100.00
20620;BME280;10469;42.720;23.252;2023-02-28T13:58:41;95300.25;;;11.51;100.00
20620;BME280;10469;42.720;23.252;2023-02-28T14:01:48;95302.22;;;11.33;100.00
20620;BME280;10469;42.720;23.252;2023-02-28T14:07:04;95309.13;;;11.40;100.00
20620;BME280;10469;42.720;23.252;2023-02-28T14:09:40;95293.00;;;11.40;100.00
20620;BME280;10469;42.720;23.252;2023-02-28T14:17:55;95329.75;;;10.98;100.00
20620;BME280;10469;42.720;23.252;2023-02-28T14:20:22;95339.63;;;10.86;100.00
20620;BME280;10469;42.720;23.252;2023-02-28T14:25:55;95327.84;;;10.87;100.00
20620;BME280;10469;42.720;23.252;2023-02-28T14:37:15;95319.53;;;11.07;100.00
20620;BME280;10469;42.720;23.252;2023-02-28T14:39:43;95326.38;;;10.72;100.00
20620;BME280;10469;42.720;23.252;2023-02-28T14:42:30;95337.50;;;10.76;100.00
20620;BME280;10469;42.720;23.252;2023-02-28T14:44:55;95337.72;;;10.56;100.00
20620;BME280;10469;42.720;23.252;2023-02-28T14:47:23;95329.41;;;10.46;100.00
20620;BME280;10469;42.720;23.252;2023-02-28T14:49:51;95328.66;;;10.39;100.00
20620;BME280;10469;42.720;23.252;2023-02-28T14:52:28;95329.25;;;10.41;100.00
20620;BME280;10469;42.720;23.252;2023-02-28T14:55:05;95338.78;;;10.55;100.00
20620;BME280;10469;42.720;23.252;2023-02-28T14:57:40;95324.78;;;10.35;100.00
20620;BME280;10469;42.720;23.252;2023-02-28T15:00:27;95346.50;;;10.26;100.00
20620;BME280;10469;42.720;23.252;2023-02-28T15:02:54;95337.81;;;10.31;100.00
20620;BME280;10469;42.720;23.252;2023-02-28T15:05:33;95326.31;;;10.24;100.00
20620;BME280;10469;42.720;23.252;2023-02-28T15:08:14;95312.41;;;10.15;100.00
20620;BME280;10469;42.720;23.252;2023-02-28T15:10:45;95329.22;;;10.04;100.00
20620;BME280;10469;42.720;23.252;2023-02-28T15:13:16;95320.78;;;10.00;100.00
20620;BME280;10469;42.720;23.252;2023-02-28T15:21:15;95320.91;;;9.87;100.00
20620;BME280;10469;42.720;23.252;2023-02-28T15:23:46;95332.44;;;9.88;100.00
20620;BME280;10469;42.720;23.252;2023-02-28T15:26:16;95321.44;;;9.96;100.00